Time;durP1;ratioP1;P1;durP2;ratioP2;P2;SDS_P1;SDS_P2;PMS_P1;PMS_P2;Temp;Humidity;BMP_temperature;BMP_pressure;BME280_temperature;BME280_humidity;BME280_pressure;Samples;Min_cycle;Max_cycle;Signal;HPM_P1;HPM_P2
2023/01/29 00:01:40;;;;;;;2.07;1.73;;;5.40;99.90;;;;;;5040942;28;20220;-81
2023/01/29 00:04:06;;;;;;;5.10;4.07;;;5.40;99.90;;;;;;5020755;28;20216;-80
2023/01/29 00:06:32;;;;;;;2.47;2.37;;;5.40;99.90;;;;;;5050473;28;20243;-80
2023/01/29 00:08:58;;;;;;;2.13;1.83;;;5.40;99.90;;;;;;5036746;28;20224;-83
2023/01/29 00:11:24;;;;;;;3.87;3.43;;;5.40;99.90;;;;;;5052479;28;20244;-80
2023/01/29 00:13:50;;;;;;;8.63;2.47;;;5.40;99.90;;;;;;5055758;28;20690;-82
2023/01/29 00:16:16;;;;;;;3.07;1.93;;;5.40;99.90;;;;;;5051596;28;20189;-81
2023/01/29 00:18:42;;;;;;;2.87;2.27;;;5.50;99.90;;;;;;5035648;28;20191;-80
2023/01/29 00:21:13;;;;;;;2.53;2.33;;;5.50;99.90;;;;;;5050458;28;20227;-80
2023/01/29 00:23:39;;;;;;;5.33;3.23;;;5.50;99.90;;;;;;5062677;28;20239;-83
2023/01/29 00:26:05;;;;;;;1.50;1.40;;;5.50;99.90;;;;;;5038895;28;20670;-80
2023/01/29 00:28:30;;;;;;;7.20;3.03;;;5.50;99.90;;;;;;5061848;28;20308;-80
2023/01/29 00:30:56;;;;;;;8.13;2.37;;;5.50;99.90;;;;;;5051237;28;20604;-82
2023/01/29 00:33:22;;;;;;;2.93;1.47;;;5.50;99.90;;;;;;5054155;28;20274;-80
2023/01/29 00:35:48;;;;;;;2.33;2.07;;;5.60;99.90;;;;;;5026992;28;20656;-81
2023/01/29 00:38:13;;;;;;;3.93;2.57;;;5.60;99.90;;;;;;5053744;28;20240;-82
2023/01/29 00:46:09;;;;;;;4.23;2.33;;;5.60;99.90;;;;;;5062119;28;20620;-80
2023/01/29 00:48:35;;;;;;;3.37;3.07;;;5.60;99.90;;;;;;5052951;28;20185;-81
2023/01/29 00:51:02;;;;;;;6.23;3.03;;;5.60;99.90;;;;;;5051145;28;20243;-83
2023/01/29 00:53:28;;;;;;;2.77;2.63;;;5.60;99.90;;;;;;5052226;28;20312;-80
2023/01/29 00:55:53;;;;;;;4.73;2.90;;;5.60;99.90;;;;;;5061247;28;20659;-80
2023/01/29 00:58:21;;;;;;;5.10;3.43;;;5.60;99.90;;;;;;5020122;28;20204;-80
2023/01/29 01:00:50;;;;;;;3.37;2.17;;;5.60;99.90;;;;;;5038448;28;20222;-81
2023/01/29 01:03:16;;;;;;;2.73;2.53;;;5.60;99.90;;;;;;5051079;28;20332;-81
2023/01/29 01:05:42;;;;;;;3.63;2.47;;;5.60;99.90;;;;;;5010713;28;20311;-83
2023/01/29 01:11:06;;;;;;;4.30;3.87;;;5.50;99.90;;;;;;5053886;28;20213;-81
2023/01/29 01:13:33;;;;;;;2.47;2.27;;;5.50;99.90;;;;;;5030871;28;20299;-80
2023/01/29 01:15:59;;;;;;;4.10;2.97;;;5.60;99.90;;;;;;5050253;28;20288;-84
2023/01/29 01:18:28;;;;;;;3.33;2.40;;;5.60;99.90;;;;;;5039819;28;20296;-83
2023/01/29 01:20:56;;;;;;;2.17;2.03;;;5.60;99.90;;;;;;5062099;28;20243;-80
2023/01/29 01:23:22;;;;;;;4.07;2.53;;;5.60;99.90;;;;;;5054019;28;20630;-81
2023/01/29 01:25:48;;;;;;;4.40;2.67;;;5.60;99.90;;;;;;5052819;28;20232;-81
2023/01/29 01:28:14;;;;;;;2.63;2.43;;;5.60;99.90;;;;;;5036118;28;20211;-81
2023/01/29 01:30:40;;;;;;;5.00;3.97;;;5.60;99.90;;;;;;5052129;28;20185;-82
2023/01/29 01:33:06;;;;;;;3.60;3.20;;;5.60;99.90;;;;;;5034503;28;20283;-81
2023/01/29 01:35:32;;;;;;;2.83;2.70;;;5.60;99.90;;;;;;5056596;28;20221;-81
2023/01/29 01:37:57;;;;;;;5.50;2.90;;;5.60;99.90;;;;;;5061074;28;20597;-81
2023/01/29 01:40:24;;;;;;;4.47;3.47;;;5.60;99.90;;;;;;5037153;28;20202;-81
2023/01/29 01:42:53;;;;;;;3.30;3.10;;;5.70;99.90;;;;;;5049919;28;21025;-81
2023/01/29 01:45:27;;;;;;;1.70;1.63;;;5.70;99.90;;;;;;5052416;28;20295;-82
2023/01/29 01:48:15;;;;;;;5.37;3.50;;;5.60;99.90;;;;;;5054255;28;20232;-81
2023/01/29 01:50:48;;;;;;;2.67;2.43;;;5.60;99.90;;;;;;5051205;28;20221;-80
2023/01/29 01:53:18;;;;;;;4.60;3.50;;;5.70;99.90;;;;;;5049976;28;20593;-81
2023/01/29 01:55:57;;;;;;;8.00;3.50;;;5.70;99.90;;;;;;5052039;28;20286;-81
2023/01/29 01:58:32;;;;;;;4.00;2.07;;;5.70;99.90;;;;;;5052499;28;20432;-81
2023/01/29 02:00:58;;;;;;;4.03;3.73;;;5.60;99.90;;;;;;5054217;28;20181;-81
2023/01/29 02:11:54;;;;;;;3.07;2.07;;;5.70;99.90;;;;;;5061470;28;20221;-81
2023/01/29 02:14:20;;;;;;;11.73;2.13;;;5.70;99.90;;;;;;5051583;28;20221;-81
2023/01/29 02:16:45;;;;;;;3.17;2.93;;;5.70;99.90;;;;;;5060883;28;20224;-81
2023/01/29 02:19:43;;;;;;;6.97;2.93;;;5.70;99.90;;;;;;5026630;28;20197;-82
2023/01/29 02:22:12;;;;;;;4.80;2.50;;;5.70;99.90;;;;;;5059327;28;20223;-81
2023/01/29 02:24:49;;;;;;;2.23;2.10;;;5.80;99.90;;;;;;5050997;28;20224;-81
2023/01/29 02:27:23;;;;;;;3.37;2.83;;;5.80;99.90;;;;;;5053013;28;20223;-81
2023/01/29 02:29:57;;;;;;;16.50;3.37;;;5.80;99.90;;;;;;5053322;28;20231;-80
2023/01/29 02:32:25;;;;;;;3.77;3.37;;;5.80;99.90;;;;;;5061358;28;20213;-80
2023/01/29 02:38:09;;;;;;;4.47;3.47;;;5.80;99.90;;;;;;5060703;28;20771;-80
2023/01/29 02:40:39;;;;;;;6.70;3.60;;;5.80;99.90;;;;;;5058712;28;20327;-83
2023/01/29 02:43:26;;;;;;;2.37;2.17;;;5.80;99.90;;;;;;5060820;28;20666;-80
2023/01/29 02:45:51;;;;;;;5.67;4.37;;;5.80;99.90;;;;;;5061021;28;20304;-81
2023/01/29 02:48:24;;;;;;;4.57;3.40;;;5.80;99.90;;;;;;5060227;28;20745;-81
2023/01/29 02:51:00;;;;;;;6.50;2.70;;;5.80;99.90;;;;;;5054527;28;20569;-84
2023/01/29 02:53:49;;;;;;;5.10;2.80;;;5.70;99.90;;;;;;5060955;28;20220;-81
2023/01/29 02:56:21;;;;;;;4.37;3.97;;;5.80;99.90;;;;;;5060989;28;20233;-80
2023/01/29 02:59:01;;;;;;;5.03;4.53;;;5.70;99.90;;;;;;5052439;28;20686;-80
2023/01/29 03:01:43;;;;;;;3.60;3.07;;;5.70;99.90;;;;;;5055481;28;20240;-80
2023/01/29 03:04:18;;;;;;;3.77;3.23;;;5.70;99.90;;;;;;5059831;28;20193;-80
2023/01/29 03:06:52;;;;;;;7.30;4.80;;;5.70;99.90;;;;;;5064481;28;20188;-81
2023/01/29 03:09:40;;;;;;;7.83;4.40;;;5.60;99.90;;;;;;5058672;28;20878;-80
2023/01/29 03:12:32;;;;;;;4.53;2.63;;;5.60;99.90;;;;;;5059900;28;20217;-81
2023/01/29 03:15:10;;;;;;;3.53;1.53;;;5.60;99.90;;;;;;5055848;28;20236;-80
2023/01/29 03:17:41;;;;;;;2.60;2.43;;;5.60;99.90;;;;;;5051142;28;20213;-81
2023/01/29 03:20:13;;;;;;;3.87;3.57;;;5.60;99.90;;;;;;5056509;28;20233;-80
2023/01/29 03:22:42;;;;;;;2.63;2.43;;;5.60;99.90;;;;;;5050306;28;20248;-81
2023/01/29 03:34:03;;;;;;;3.87;2.47;;;5.50;99.90;;;;;;5063686;28;20886;-84
2023/01/29 03:36:44;;;;;;;5.63;3.13;;;5.60;99.90;;;;;;5055732;28;20213;-81
2023/01/29 03:39:12;;;;;;;4.53;2.63;;;5.60;99.90;;;;;;5052663;28;20291;-81
2023/01/29 03:41:49;;;;;;;4.63;3.47;;;5.60;99.90;;;;;;5063894;28;20224;-80
2023/01/29 03:44:19;;;;;;;3.47;2.90;;;5.60;99.90;;;;;;5051928;28;20281;-80
2023/01/29 03:47:05;;;;;;;5.33;3.77;;;5.60;99.90;;;;;;5063768;28;20220;-81
2023/01/29 03:49:38;;;;;;;2.97;2.13;;;5.60;99.90;;;;;;5063734;28;20217;-81
2023/01/29 03:52:22;;;;;;;3.23;2.93;;;5.60;99.90;;;;;;5056565;28;20185;-81
2023/01/29 03:54:56;;;;;;;3.70;3.40;;;5.60;99.90;;;;;;5053690;28;20256;-81
2023/01/29 03:57:48;;;;;;;5.73;3.60;;;5.50;99.90;;;;;;5069134;28;20228;-80
2023/01/29 04:00:22;;;;;;;2.77;2.57;;;5.50;99.90;;;;;;5063228;28;20925;-81
2023/01/29 04:02:48;;;;;;;4.53;3.30;;;5.50;99.90;;;;;;5050430;28;20233;-80
2023/01/29 04:05:23;;;;;;;4.63;4.23;;;5.50;99.90;;;;;;5063071;28;20220;-80
2023/01/29 04:07:53;;;;;;;2.63;2.40;;;5.50;99.90;;;;;;5063006;28;20217;-83
2023/01/29 04:10:25;;;;;;;2.30;2.10;;;5.60;99.90;;;;;;5062881;28;20188;-80
2023/01/29 04:13:05;;;;;;;4.07;3.67;;;5.60;99.90;;;;;;5056793;28;20185;-82
2023/01/29 04:15:36;;;;;;;4.70;3.70;;;5.50;99.90;;;;;;5045051;28;20213;-80
2023/01/29 04:18:02;;;;;;;8.30;3.97;;;5.50;99.90;;;;;;5062139;28;20240;-80
2023/01/29 04:20:28;;;;;;;2.13;2.03;;;5.50;99.90;;;;;;5036214;28;21104;-80
2023/01/29 04:22:54;;;;;;;5.17;3.27;;;5.60;99.90;;;;;;5041778;28;20776;-81
2023/01/29 04:25:27;;;;;;;4.10;3.30;;;5.60;99.90;;;;;;5061928;28;20185;-80
2023/01/29 04:28:06;;;;;;;3.20;2.17;;;5.50;99.90;;;;;;5054481;28;20572;-80
2023/01/29 04:30:48;;;;;;;5.20;2.40;;;5.50;99.90;;;;;;5062563;28;20201;-80
2023/01/29 04:33:21;;;;;;;6.20;3.43;;;5.60;99.90;;;;;;5052948;28;20248;-80
2023/01/29 04:35:58;;;;;;;2.90;2.63;;;5.50;99.90;;;;;;5053368;28;20225;-81
2023/01/29 04:39:02;;;;;;;6.93;3.50;;;5.50;99.90;;;;;;5062002;28;20708;-80
2023/01/29 04:41:50;;;;;;;4.67;2.77;;;5.60;99.90;;;;;;5062352;28;20231;-83
2023/01/29 04:44:34;;;;;;;2.73;2.53;;;5.50;99.90;;;;;;5043541;28;20235;-80
2023/01/29 04:47:17;;;;;;;4.50;3.90;;;5.60;99.90;;;;;;5062194;28;20394;-81
2023/01/29 04:49:49;;;;;;;5.37;3.10;;;5.60;99.90;;;;;;5064738;28;20213;-81
2023/01/29 04:52:42;;;;;;;2.50;2.17;;;5.60;99.90;;;;;;5062302;28;20198;-80
2023/01/29 04:55:57;;;;;;;5.73;3.77;;;5.60;99.90;;;;;;5060853;28;20646;-81
2023/01/29 04:58:39;;;;;;;7.97;4.20;;;5.60;99.90;;;;;;4988718;28;20213;-80
2023/01/29 05:01:10;;;;;;;6.17;3.87;;;5.70;99.90;;;;;;5062066;28;20181;-80
2023/01/29 05:03:38;;;;;;;7.07;3.27;;;5.70;99.90;;;;;;5053364;28;20221;-80
2023/01/29 05:06:06;;;;;;;7.17;4.03;;;5.70;99.90;;;;;;5051828;28;20239;-80
2023/01/29 05:08:32;;;;;;;4.13;3.00;;;5.70;99.90;;;;;;5053536;28;20509;-82
2023/01/29 05:10:59;;;;;;;3.87;3.13;;;5.70;99.90;;;;;;5051747;28;20550;-81
2023/01/29 05:13:27;;;;;;;4.43;4.00;;;5.70;99.90;;;;;;5043167;28;20593;-80
2023/01/29 05:16:03;;;;;;;7.63;3.90;;;5.70;99.90;;;;;;5036829;28;20595;-80
2023/01/29 05:18:29;;;;;;;3.27;2.97;;;5.70;99.90;;;;;;5050125;28;20598;-80
2023/01/29 05:20:58;;;;;;;3.50;3.20;;;5.70;99.90;;;;;;5037333;28;20221;-81
2023/01/29 05:23:24;;;;;;;4.90;3.33;;;5.70;99.90;;;;;;5051629;28;20260;-80
2023/01/29 05:25:51;;;;;;;3.30;2.00;;;5.70;99.90;;;;;;5039327;28;20283;-81
2023/01/29 05:28:17;;;;;;;3.00;2.17;;;5.60;99.90;;;;;;5025331;28;20759;-82
2023/01/29 05:30:48;;;;;;;7.53;4.10;;;5.60;99.90;;;;;;5055413;28;20186;-80
2023/01/29 05:33:25;;;;;;;4.47;3.57;;;5.70;99.90;;;;;;5054852;28;20228;-81
2023/01/29 05:35:51;;;;;;;3.00;2.70;;;5.70;99.90;;;;;;5054829;28;20217;-80
2023/01/29 05:38:17;;;;;;;6.63;2.17;;;5.70;99.90;;;;;;5035780;28;20693;-79
2023/01/29 05:40:43;;;;;;;5.27;3.27;;;5.70;99.90;;;;;;5055225;28;20665;-80
2023/01/29 05:43:18;;;;;;;3.73;3.43;;;5.70;99.90;;;;;;5020516;28;20235;-80
2023/01/29 05:45:52;;;;;;;3.37;3.00;;;5.60;99.90;;;;;;5059335;28;20682;-83
2023/01/29 05:48:18;;;;;;;3.53;2.80;;;5.60;99.90;;;;;;5060560;28;20698;-81
2023/01/29 05:50:43;;;;;;;9.03;4.13;;;5.60;99.90;;;;;;5054642;28;20340;-83
2023/01/29 05:53:09;;;;;;;4.87;4.57;;;5.60;99.90;;;;;;5037055;28;20233;-81
2023/01/29 05:55:35;;;;;;;4.33;3.17;;;5.50;99.90;;;;;;5037156;28;20312;-80
2023/01/29 05:58:01;;;;;;;4.70;2.37;;;5.50;99.90;;;;;;5053461;28;20197;-83
2023/01/29 06:00:27;;;;;;;3.10;2.80;;;5.50;99.90;;;;;;5037656;28;20700;-81
2023/01/29 06:02:52;;;;;;;4.53;3.40;;;5.40;99.90;;;;;;5055485;28;20814;-80
2023/01/29 06:05:18;;;;;;;1.67;1.50;;;5.50;99.90;;;;;;5039193;28;20223;-79
2023/01/29 06:07:44;;;;;;;3.83;2.10;;;5.50;99.90;;;;;;5037461;28;20304;-80
2023/01/29 06:10:15;;;;;;;5.07;3.53;;;5.50;99.90;;;;;;5053126;28;20294;-80
2023/01/29 06:12:42;;;;;;;4.77;4.23;;;5.50;99.90;;;;;;5054772;28;20223;-83
2023/01/29 06:15:08;;;;;;;13.57;3.90;;;5.50;99.90;;;;;;5055048;28;20221;-80
2023/01/29 06:17:34;;;;;;;7.23;4.70;;;5.50;99.90;;;;;;5055212;28;20221;-80
2023/01/29 06:20:00;;;;;;;6.00;2.90;;;5.50;99.90;;;;;;5053934;28;20682;-79
2023/01/29 06:22:25;;;;;;;2.93;2.67;;;5.60;99.90;;;;;;5054446;28;20220;-80
2023/01/29 06:24:51;;;;;;;2.97;2.70;;;5.60;99.90;;;;;;5060685;28;21043;-82
2023/01/29 06:27:17;;;;;;;4.20;3.80;;;5.60;99.90;;;;;;5033387;28;20213;-80
2023/01/29 06:29:43;;;;;;;5.87;4.87;;;5.60;99.90;;;;;;5032538;28;20611;-80
2023/01/29 06:32:08;;;;;;;5.83;4.53;;;5.60;99.90;;;;;;5016497;28;20221;-81
2023/01/29 06:34:34;;;;;;;2.40;2.17;;;5.60;99.90;;;;;;5020124;28;20221;-81
2023/01/29 06:37:00;;;;;;;2.77;2.57;;;5.60;99.90;;;;;;5037661;28;20213;-83
2023/01/29 06:39:25;;;;;;;4.43;3.60;;;5.60;99.90;;;;;;5053266;28;20216;-80
2023/01/29 06:41:51;;;;;;;3.13;2.77;;;5.50;99.90;;;;;;5016806;28;20610;-80
2023/01/29 06:44:17;;;;;;;4.47;3.43;;;5.50;99.90;;;;;;5053731;28;20288;-82
2023/01/29 06:46:43;;;;;;;3.80;3.27;;;5.40;99.90;;;;;;5032974;28;20244;-80
2023/01/29 06:49:08;;;;;;;4.07;3.37;;;5.30;99.90;;;;;;5017695;28;20243;-80
2023/01/29 06:51:34;;;;;;;4.80;3.47;;;5.30;99.90;;;;;;5036606;28;20200;-80
2023/01/29 06:54:00;;;;;;;8.83;4.17;;;5.20;99.90;;;;;;5045055;28;20516;-81
2023/01/29 06:56:26;;;;;;;3.73;3.27;;;5.30;99.90;;;;;;5042682;28;20259;-80
2023/01/29 06:58:51;;;;;;;4.20;3.33;;;5.30;99.90;;;;;;5058135;28;20221;-82
2023/01/29 07:01:17;;;;;;;4.80;3.40;;;5.30;99.90;;;;;;5055142;28;20323;-80
2023/01/29 07:03:43;;;;;;;5.80;5.30;;;5.30;99.90;;;;;;5040145;28;20210;-80
2023/01/29 07:06:09;;;;;;;7.27;5.33;;;5.30;99.90;;;;;;5059542;28;21517;-81
2023/01/29 07:08:37;;;;;;;7.77;5.97;;;5.30;99.90;;;;;;5059768;28;20617;-81
2023/01/29 07:11:03;;;;;;;6.20;3.60;;;5.30;99.90;;;;;;5036937;28;20354;-80
2023/01/29 07:13:28;;;;;;;5.80;3.60;;;5.30;99.90;;;;;;5057135;28;20782;-83
2023/01/29 07:15:58;;;;;;;8.43;3.53;;;5.30;99.90;;;;;;5064577;28;20291;-80
2023/01/29 07:18:24;;;;;;;4.70;4.33;;;5.30;99.90;;;;;;5038832;28;20213;-80
2023/01/29 07:20:52;;;;;;;4.53;4.13;;;5.30;99.90;;;;;;5064133;28;20214;-80
2023/01/29 07:23:18;;;;;;;2.87;2.67;;;5.30;99.90;;;;;;5038651;28;20631;-83
2023/01/29 07:25:43;;;;;;;4.63;4.33;;;5.30;99.90;;;;;;5039535;28;20217;-80
2023/01/29 07:28:09;;;;;;;4.73;2.90;;;5.30;99.90;;;;;;5053718;28;20201;-80
2023/01/29 07:30:35;;;;;;;5.47;4.07;;;5.30;99.90;;;;;;5040939;28;20243;-81
2023/01/29 07:33:06;;;;;;;5.00;3.97;;;5.30;99.90;;;;;;5037181;28;20678;-80
2023/01/29 07:35:37;;;;;;;4.90;4.37;;;5.40;99.90;;;;;;5035512;28;20225;-80
2023/01/29 07:38:03;;;;;;;4.63;4.23;;;5.40;99.90;;;;;;5064228;28;20228;-81
2023/01/29 07:40:28;;;;;;;4.43;3.80;;;5.40;99.90;;;;;;5034518;28;20209;-81
2023/01/29 07:43:03;;;;;;;5.23;4.00;;;5.40;99.90;;;;;;5037190;28;20679;-81
2023/01/29 07:45:30;;;;;;;7.97;4.67;;;5.50;99.90;;;;;;5054250;28;20225;-80
2023/01/29 07:47:56;;;;;;;4.00;3.63;;;5.40;99.90;;;;;;5063059;28;20228;-81
2023/01/29 07:50:22;;;;;;;4.30;4.00;;;5.40;99.90;;;;;;5062665;28;20216;-81
2023/01/29 07:52:48;;;;;;;6.27;4.63;;;5.50;99.90;;;;;;5039531;28;20240;-81
2023/01/29 07:55:14;;;;;;;4.27;3.87;;;5.50;99.90;;;;;;5055789;28;21283;-81
2023/01/29 07:57:40;;;;;;;5.93;4.90;;;5.50;99.90;;;;;;5054569;28;20540;-81
2023/01/29 08:00:06;;;;;;;7.10;5.10;;;5.50;99.90;;;;;;5036121;28;20225;-84
2023/01/29 08:02:32;;;;;;;4.67;4.27;;;5.50;99.90;;;;;;5020989;28;20221;-81
2023/01/29 08:04:58;;;;;;;12.47;6.40;;;5.50;99.90;;;;;;5055691;28;20628;-82
2023/01/29 08:07:23;;;;;;;8.17;4.37;;;5.50;99.90;;;;;;5063889;28;20283;-81
2023/01/29 08:09:49;;;;;;;5.73;2.37;;;5.50;99.90;;;;;;5036149;28;20517;-82
2023/01/29 08:12:15;;;;;;;3.93;3.53;;;5.50;99.90;;;;;;5054650;28;20313;-82
2023/01/29 08:14:40;;;;;;;7.37;5.23;;;5.50;99.90;;;;;;5051170;28;20602;-83
2023/01/29 08:17:06;;;;;;;7.63;6.90;;;5.50;99.90;;;;;;5028545;28;20216;-81
2023/01/29 08:19:32;;;;;;;4.63;3.20;;;5.50;99.90;;;;;;5055271;28;20263;-84
2023/01/29 08:21:57;;;;;;;9.13;5.87;;;5.50;99.90;;;;;;5036951;28;20190;-81
2023/01/29 08:24:23;;;;;;;4.90;4.33;;;5.50;99.90;;;;;;5037686;28;20229;-84
2023/01/29 08:26:49;;;;;;;6.33;5.40;;;5.60;99.90;;;;;;5052811;28;20252;-82
2023/01/29 08:29:15;;;;;;;1.80;1.73;;;5.60;99.90;;;;;;5035664;28;20213;-81
2023/01/29 08:31:40;;;;;;;4.47;3.80;;;5.60;99.90;;;;;;5035722;28;20208;-80
2023/01/29 08:34:06;;;;;;;5.37;4.87;;;5.50;99.90;;;;;;5032485;28;20315;-84
2023/01/29 08:36:33;;;;;;;5.40;4.93;;;5.50;99.90;;;;;;5038517;28;20542;-82
2023/01/29 08:38:59;;;;;;;3.53;2.50;;;5.50;99.90;;;;;;5020890;28;20581;-82
2023/01/29 08:41:24;;;;;;;12.33;8.17;;;5.50;99.90;;;;;;5021911;28;20220;-82
2023/01/29 08:43:50;;;;;;;7.97;5.83;;;5.50;99.90;;;;;;5053218;28;20216;-84
2023/01/29 08:46:16;;;;;;;5.40;4.93;;;5.50;99.90;;;;;;5036274;28;20194;-82
2023/01/29 08:48:41;;;;;;;8.90;5.27;;;5.50;99.90;;;;;;5039797;28;20189;-83
2023/01/29 08:51:08;;;;;;;6.30;5.67;;;5.50;99.90;;;;;;5051835;28;20228;-82
2023/01/29 08:53:34;;;;;;;5.43;4.23;;;5.50;99.90;;;;;;5033411;28;20217;-82
2023/01/29 08:56:00;;;;;;;6.20;5.00;;;5.50;99.90;;;;;;5062822;28;20240;-81
2023/01/29 08:58:25;;;;;;;7.13;5.57;;;5.60;99.90;;;;;;5059667;28;20282;-83
2023/01/29 09:00:51;;;;;;;4.00;3.63;;;5.60;99.90;;;;;;5037708;28;20189;-85
2023/01/29 09:03:17;;;;;;;5.57;4.17;;;5.60;99.90;;;;;;5036435;28;20287;-82
2023/01/29 09:05:43;;;;;;;3.13;2.70;;;5.60;99.90;;;;;;5037868;28;20659;-83
2023/01/29 09:08:09;;;;;;;5.70;5.00;;;5.60;99.90;;;;;;5019148;28;20236;-83
2023/01/29 09:10:35;;;;;;;5.80;3.43;;;5.60;99.90;;;;;;5064057;28;20213;-82
2023/01/29 09:13:01;;;;;;;6.77;3.70;;;5.60;99.90;;;;;;5064454;28;20287;-84
2023/01/29 09:15:27;;;;;;;7.97;4.40;;;5.60;99.90;;;;;;5062723;28;20678;-83
2023/01/29 09:17:53;;;;;;;5.10;3.20;;;5.60;99.90;;;;;;5051921;28;20224;-83
2023/01/29 09:20:18;;;;;;;5.20;4.40;;;5.60;99.90;;;;;;5051961;28;20795;-83
2023/01/29 09:22:45;;;;;;;4.63;4.13;;;5.60;99.90;;;;;;5021139;28;20209;-84
2023/01/29 09:25:11;;;;;;;3.80;3.60;;;5.60;99.90;;;;;;5062803;28;20556;-86
2023/01/29 09:27:37;;;;;;;9.87;4.77;;;5.60;99.90;;;;;;5053264;28;20788;-81
2023/01/29 09:30:04;;;;;;;5.67;3.57;;;5.60;99.90;;;;;;5052088;28;20274;-84
2023/01/29 09:32:30;;;;;;;6.43;5.80;;;5.70;99.90;;;;;;5053323;28;20286;-82
2023/01/29 09:34:56;;;;;;;5.53;4.73;;;5.70;99.90;;;;;;5019357;28;20232;-82
2023/01/29 09:37:22;;;;;;;4.50;3.13;;;5.70;99.90;;;;;;5019649;28;20204;-83
2023/01/29 09:39:51;;;;;;;5.33;4.83;;;5.70;99.90;;;;;;5031433;28;20616;-81
2023/01/29 09:42:34;;;;;;;3.07;2.87;;;5.70;99.90;;;;;;5052291;28;20279;-81
2023/01/29 09:45:14;;;;;;;4.70;4.23;;;5.70;99.90;;;;;;5061699;28;20229;-81
2023/01/29 09:47:40;;;;;;;4.93;4.53;;;5.70;99.90;;;;;;5053462;28;21070;-82
2023/01/29 09:50:17;;;;;;;4.80;4.40;;;5.70;99.90;;;;;;5052621;28;20218;-83
2023/01/29 09:52:52;;;;;;;8.27;5.37;;;5.70;99.90;;;;;;5061725;28;20311;-80
2023/01/29 09:55:26;;;;;;;7.17;4.90;;;5.70;99.90;;;;;;5043065;28;21103;-81
2023/01/29 09:58:04;;;;;;;4.17;3.77;;;5.70;99.90;;;;;;5051907;28;20193;-82
2023/01/29 10:00:47;;;;;;;5.27;3.90;;;5.80;99.90;;;;;;5060930;28;20240;-82
2023/01/29 10:03:46;;;;;;;3.60;3.37;;;5.80;99.90;;;;;;5066760;28;20229;-81
2023/01/29 10:06:31;;;;;;;6.53;2.37;;;5.80;99.90;;;;;;5061931;28;20304;-81
2023/01/29 10:09:09;;;;;;;11.80;4.70;;;5.80;99.90;;;;;;5050261;28;20999;-82
2023/01/29 10:11:44;;;;;;;2.60;2.40;;;5.90;99.90;;;;;;5050257;28;20665;-85
2023/01/29 10:14:36;;;;;;;4.37;3.97;;;5.90;99.90;;;;;;5050333;28;20232;-82
2023/01/29 10:17:08;;;;;;;4.37;3.47;;;5.90;99.90;;;;;;5052329;28;20217;-82
2023/01/29 10:20:05;;;;;;;2.73;2.53;;;6.00;99.90;;;;;;5059898;28;20285;-83
2023/01/29 10:22:44;;;;;;;1.97;1.60;;;6.00;99.90;;;;;;5060251;28;20678;-83
2023/01/29 10:25:17;;;;;;;7.77;3.37;;;6.10;99.90;;;;;;5044178;28;20185;-82
2023/01/29 10:27:50;;;;;;;3.07;2.87;;;6.20;99.90;;;;;;5055600;28;20185;-82
2023/01/29 10:30:32;;;;;;;1.40;1.30;;;6.20;99.90;;;;;;5063964;28;20318;-84
2023/01/29 10:33:02;;;;;;;3.57;2.53;;;6.20;99.90;;;;;;5055668;28;20236;-83
2023/01/29 10:35:33;;;;;;;1.23;1.17;;;6.30;99.90;;;;;;5063232;28;20213;-83
2023/01/29 10:38:32;;;;;;;3.13;1.60;;;6.40;99.90;;;;;;5063538;28;20366;-82
2023/01/29 10:41:00;;;;;;;2.60;1.70;;;6.40;99.90;;;;;;5024771;28;20772;-81
2023/01/29 10:43:40;;;;;;;4.63;2.67;;;6.50;99.90;;;;;;5054636;28;20415;-81
2023/01/29 10:46:27;;;;;;;4.90;2.53;;;6.50;99.90;;;;;;5053976;28;20195;-82
2023/01/29 10:49:14;;;;;;;3.90;2.40;;;6.50;99.90;;;;;;5055655;28;20805;-84
2023/01/29 10:51:43;;;;;;;6.90;2.60;;;6.50;99.90;;;;;;5065413;28;20209;-82
2023/01/29 10:54:51;;;;;;;2.33;2.07;;;6.60;99.90;;;;;;5054963;28;20228;-83
2023/01/29 10:57:39;;;;;;;2.50;2.20;;;6.70;99.90;;;;;;5064399;28;21062;-85
2023/01/29 11:00:24;;;;;;;3.63;1.87;;;6.70;99.90;;;;;;5065227;28;20274;-83
2023/01/29 11:02:50;;;;;;;2.37;2.27;;;6.70;99.90;;;;;;5055437;28;20251;-82
2023/01/29 11:05:30;;;;;;;1.37;1.27;;;6.70;99.90;;;;;;5054506;28;20229;-84
2023/01/29 11:08:10;;;;;;;1.53;1.43;;;6.60;99.90;;;;;;5064567;28;20328;-84
2023/01/29 11:11:07;;;;;;;18.23;3.43;;;6.70;99.90;;;;;;5056310;28;20213;-81
2023/01/29 11:13:49;;;;;;;1.60;1.50;;;6.70;99.90;;;;;;5058709;28;20815;-83
2023/01/29 11:16:15;;;;;;;2.03;1.70;;;6.80;99.90;;;;;;5053360;28;20191;-83
2023/01/29 11:18:51;;;;;;;2.40;1.67;;;6.80;99.90;;;;;;5055881;28;20189;-83
2023/01/29 11:21:17;;;;;;;0.77;0.70;;;6.80;99.90;;;;;;5053924;28;20224;-83
2023/01/29 11:23:43;;;;;;;1.97;0.93;;;6.80;99.90;;;;;;5054753;28;20229;-84
2023/01/29 11:26:12;;;;;;;1.53;1.43;;;6.70;99.90;;;;;;5039633;28;20701;-82
2023/01/29 11:28:40;;;;;;;2.40;1.33;;;6.80;99.90;;;;;;5054359;28;20221;-83
2023/01/29 11:31:37;;;;;;;1.17;1.07;;;6.80;99.90;;;;;;5054720;28;20201;-84
2023/01/29 11:34:20;;;;;;;1.20;0.97;;;6.80;99.90;;;;;;5035909;28;20193;-83
2023/01/29 11:36:59;;;;;;;1.70;1.37;;;6.80;99.90;;;;;;5063974;28;20312;-82
2023/01/29 11:39:26;;;;;;;1.43;0.87;;;6.80;99.90;;;;;;5070748;28;20217;-84
2023/01/29 11:42:02;;;;;;;1.37;1.20;;;6.80;99.90;;;;;;5053228;28;20690;-86
2023/01/29 11:44:31;;;;;;;1.40;1.40;;;6.90;99.90;;;;;;5053481;28;20262;-82
2023/01/29 11:47:11;;;;;;;2.00;1.13;;;6.90;99.90;;;;;;5051581;28;20217;-83
2023/01/29 11:49:38;;;;;;;2.53;1.97;;;6.90;99.90;;;;;;5063934;28;20225;-84
2023/01/29 11:52:07;;;;;;;3.10;1.17;;;6.90;99.90;;;;;;5039219;28;20683;-84
2023/01/29 11:54:39;;;;;;;1.80;1.70;;;6.90;99.90;;;;;;5051480;28;20232;-82
2023/01/29 11:57:18;;;;;;;2.60;1.07;;;7.00;99.90;;;;;;5050269;28;20232;-84
2023/01/29 11:59:49;;;;;;;1.27;1.17;;;7.00;99.90;;;;;;5064566;28;20242;-82
2023/01/29 12:02:42;;;;;;;3.07;1.50;;;6.90;99.90;;;;;;5052562;28;20224;-83
2023/01/29 12:05:17;;;;;;;2.20;1.03;;;6.90;99.90;;;;;;5024547;28;20248;-82
2023/01/29 12:07:45;;;;;;;0.67;0.60;;;6.90;99.90;;;;;;5055947;28;20650;-83
2023/01/29 12:10:34;;;;;;;3.70;1.43;;;6.90;99.90;;;;;;5063148;28;20638;-82
2023/01/29 12:13:24;;;;;;;3.27;1.43;;;6.90;99.90;;;;;;5063829;28;20184;-83
2023/01/29 12:16:13;;;;;;;0.87;0.87;;;6.90;99.90;;;;;;5053085;28;20206;-81
2023/01/29 12:18:45;;;;;;;1.27;1.27;;;7.00;99.90;;;;;;5063086;28;20221;-80
2023/01/29 12:21:34;;;;;;;1.03;1.00;;;7.10;99.90;;;;;;5071750;28;20346;-80
2023/01/29 12:24:11;;;;;;;1.70;1.60;;;7.00;99.90;;;;;;5054139;28;20702;-80
2023/01/29 12:27:08;;;;;;;2.57;1.23;;;7.10;99.90;;;;;;5062065;28;20235;-83
2023/01/29 12:29:45;;;;;;;3.00;2.77;;;7.10;99.90;;;;;;5062177;28;20662;-81
2023/01/29 12:32:17;;;;;;;3.57;2.03;;;7.10;99.90;;;;;;5053648;28;20220;-82
2023/01/29 12:35:00;;;;;;;1.40;0.80;;;7.10;99.90;;;;;;5051420;28;20675;-81
2023/01/29 12:37:40;;;;;;;1.47;1.13;;;7.10;99.90;;;;;;5052734;28;20233;-81
2023/01/29 12:40:17;;;;;;;2.70;1.57;;;7.10;99.90;;;;;;5061527;28;20189;-82
2023/01/29 12:42:54;;;;;;;3.30;2.40;;;7.10;99.90;;;;;;5062043;28;20173;-81
2023/01/29 12:45:23;;;;;;;1.53;1.43;;;7.10;99.90;;;;;;5052599;28;20221;-83
2023/01/29 12:47:56;;;;;;;0.57;0.57;;;7.10;99.90;;;;;;5062756;28;20231;-81
2023/01/29 12:50:27;;;;;;;1.27;1.17;;;7.00;99.90;;;;;;5061918;28;20228;-81
2023/01/29 12:53:12;;;;;;;1.37;0.93;;;7.10;99.90;;;;;;5062222;28;20274;-84
2023/01/29 12:55:47;;;;;;;4.47;1.93;;;7.10;99.90;;;;;;5051688;28;20237;-81
2023/01/29 12:58:22;;;;;;;2.60;1.67;;;7.20;99.90;;;;;;5054040;28;20626;-82
2023/01/29 13:00:53;;;;;;;2.93;1.70;;;7.20;99.90;;;;;;5062243;28;20196;-81
2023/01/29 13:03:31;;;;;;;0.33;0.33;;;7.20;99.90;;;;;;5061713;28;20225;-81
2023/01/29 13:06:08;;;;;;;3.90;1.90;;;7.20;99.90;;;;;;5053830;28;20213;-81
2023/01/29 13:08:53;;;;;;;6.37;2.03;;;7.20;99.90;;;;;;5049182;28;20307;-82
2023/01/29 13:11:36;;;;;;;1.60;1.50;;;7.20;99.90;;;;;;5053759;28;20556;-80
2023/01/29 13:14:23;;;;;;;1.33;1.23;;;7.20;99.90;;;;;;5053967;28;20253;-85
2023/01/29 13:16:53;;;;;;;3.17;2.47;;;7.30;99.90;;;;;;5060060;28;20297;-84
2023/01/29 13:19:33;;;;;;;0.87;0.67;;;7.30;99.90;;;;;;5053992;28;20222;-82
2023/01/29 13:22:04;;;;;;;0.80;0.80;;;7.40;99.90;;;;;;5061485;28;20177;-81
2023/01/29 13:24:38;;;;;;;1.03;1.00;;;7.40;99.90;;;;;;5066861;28;20252;-83
2023/01/29 13:27:04;;;;;;;3.57;1.53;;;7.40;99.90;;;;;;5068196;28;20232;-83
2023/01/29 13:29:32;;;;;;;2.30;1.50;;;7.40;99.90;;;;;;5034400;28;20217;-83
2023/01/29 13:32:00;;;;;;;1.37;1.27;;;7.40;99.90;;;;;;5034697;28;20238;-84
2023/01/29 13:34:30;;;;;;;1.47;1.20;;;7.50;99.90;;;;;;5051501;28;20388;-84
2023/01/29 13:37:27;;;;;;;0.50;0.50;;;7.50;99.90;;;;;;5062080;28;20172;-83
2023/01/29 13:39:54;;;;;;;0.70;0.70;;;7.50;99.90;;;;;;5066330;28;20538;-83
2023/01/29 13:42:33;;;;;;;2.23;0.50;;;7.40;99.90;;;;;;5050425;28;20600;-83
2023/01/29 13:45:02;;;;;;;1.83;0.80;;;7.30;99.90;;;;;;5061257;28;20315;-82
2023/01/29 13:47:31;;;;;;;0.63;0.63;;;7.40;99.90;;;;;;5061319;28;20625;-82
2023/01/29 13:50:01;;;;;;;0.53;0.47;;;7.40;99.90;;;;;;5053336;28;20637;-85
2023/01/29 13:52:42;;;;;;;3.83;1.47;;;7.30;99.90;;;;;;5051695;28;20279;-82